sensor_id;sensor_type;location;lat;lon;timestamp;P1;durP1;ratioP1;P2;durP2;ratioP2
37781;SDS011;23621;50.878;4.584;2024-01-30T00:01:36;7.65;;;6.53;;
37781;SDS011;23621;50.878;4.584;2024-01-30T00:03:36;6.60;;;6.00;;
37781;SDS011;23621;50.878;4.584;2024-01-30T00:05:37;7.03;;;6.32;;
37781;SDS011;23621;50.878;4.584;2024-01-30T00:07:38;6.53;;;5.93;;
37781;SDS011;23621;50.878;4.584;2024-01-30T00:09:38;6.82;;;6.07;;
37781;SDS011;23621;50.878;4.584;2024-01-30T00:11:42;8.35;;;6.43;;
37781;SDS011;23621;50.878;4.584;2024-01-30T00:13:43;7.38;;;6.30;;
37781;SDS011;23621;50.878;4.584;2024-01-30T00:15:43;7.05;;;5.95;;
37781;SDS011;23621;50.878;4.584;2024-01-30T00:17:44;6.45;;;5.75;;
37781;SDS011;23621;50.878;4.584;2024-01-30T00:19:45;7.35;;;5.97;;
37781;SDS011;23621;50.878;4.584;2024-01-30T00:21:45;6.75;;;5.97;;
37781;SDS011;23621;50.878;4.584;2024-01-30T00:23:46;7.15;;;6.30;;
37781;SDS011;23621;50.878;4.584;2024-01-30T00:25:47;7.25;;;6.32;;
37781;SDS011;23621;50.878;4.584;2024-01-30T00:27:48;7.00;;;6.38;;
37781;SDS011;23621;50.878;4.584;2024-01-30T00:29:49;7.30;;;6.60;;
37781;SDS011;23621;50.878;4.584;2024-01-30T00:31:49;7.28;;;5.55;;
37781;SDS011;23621;50.878;4.584;2024-01-30T00:33:50;6.55;;;5.88;;
37781;SDS011;23621;50.878;4.584;2024-01-30T00:35:51;7.60;;;6.45;;
37781;SDS011;23621;50.878;4.584;2024-01-30T00:37:52;8.82;;;6.43;;
37781;SDS011;23621;50.878;4.584;2024-01-30T00:39:52;8.98;;;6.75;;
37781;SDS011;23621;50.878;4.584;2024-01-30T00:41:53;6.88;;;6.18;;
37781;SDS011;23621;50.878;4.584;2024-01-30T00:43:54;6.65;;;5.82;;
37781;SDS011;23621;50.878;4.584;2024-01-30T00:45:55;6.13;;;5.53;;
37781;SDS011;23621;50.878;4.584;2024-01-30T00:47:56;6.75;;;6.05;;
37781;SDS011;23621;50.878;4.584;2024-01-30T00:49:56;7.20;;;5.68;;
37781;SDS011;23621;50.878;4.584;2024-01-30T00:51:57;6.65;;;5.95;;
37781;SDS011;23621;50.878;4.584;2024-01-30T00:53:58;6.47;;;5.88;;
37781;SDS011;23621;50.878;4.584;2024-01-30T00:55:59;6.43;;;5.82;;
37781;SDS011;23621;50.878;4.584;2024-01-30T00:58:00;6.95;;;6.25;;
37781;SDS011;23621;50.878;4.584;2024-01-30T01:00:01;6.93;;;6.25;;
37781;SDS011;23621;50.878;4.584;2024-01-30T01:02:03;6.38;;;5.78;;
37781;SDS011;23621;50.878;4.584;2024-01-30T01:04:04;6.68;;;6.05;;
37781;SDS011;23621;50.878;4.584;2024-01-30T01:06:04;6.55;;;5.93;;
37781;SDS011;23621;50.878;4.584;2024-01-30T01:08:05;7.20;;;6.50;;
37781;SDS011;23621;50.878;4.584;2024-01-30T01:10:06;7.70;;;6.53;;
37781;SDS011;23621;50.878;4.584;2024-01-30T01:12:08;6.68;;;6.07;;
37781;SDS011;23621;50.878;4.584;2024-01-30T01:14:09;6.97;;;6.28;;
37781;SDS011;23621;50.878;4.584;2024-01-30T01:16:09;8.18;;;6.45;;
37781;SDS011;23621;50.878;4.584;2024-01-30T01:18:10;7.38;;;6.60;;
37781;SDS011;23621;50.878;4.584;2024-01-30T01:20:11;6.75;;;5.90;;
37781;SDS011;23621;50.878;4.584;2024-01-30T01:22:12;8.48;;;5.90;;
37781;SDS011;23621;50.878;4.584;2024-01-30T01:24:13;7.13;;;6.18;;
37781;SDS011;23621;50.878;4.584;2024-01-30T01:26:14;6.97;;;6.28;;
37781;SDS011;23621;50.878;4.584;2024-01-30T01:28:15;7.00;;;6.30;;
37781;SDS011;23621;50.878;4.584;2024-01-30T01:30:15;7.15;;;6.03;;
37781;SDS011;23621;50.878;4.584;2024-01-30T01:32:21;6.45;;;5.80;;
37781;SDS011;23621;50.878;4.584;2024-01-30T01:34:22;7.43;;;6.35;;
37781;SDS011;23621;50.878;4.584;2024-01-30T01:36:24;6.30;;;5.70;;
37781;SDS011;23621;50.878;4.584;2024-01-30T01:38:24;7.70;;;6.50;;
37781;SDS011;23621;50.878;4.584;2024-01-30T01:40:26;8.65;;;6.43;;
37781;SDS011;23621;50.878;4.584;2024-01-30T01:42:27;6.55;;;5.90;;
37781;SDS011;23621;50.878;4.584;2024-01-30T01:44:28;7.00;;;6.20;;
37781;SDS011;23621;50.878;4.584;2024-01-30T01:46:30;7.13;;;6.25;;
37781;SDS011;23621;50.878;4.584;2024-01-30T01:48:32;6.55;;;5.95;;
37781;SDS011;23621;50.878;4.584;2024-01-30T01:50:33;6.20;;;5.50;;
37781;SDS011;23621;50.878;4.584;2024-01-30T01:52:34;6.55;;;5.70;;
37781;SDS011;23621;50.878;4.584;2024-01-30T01:54:36;6.28;;;5.68;;
37781;SDS011;23621;50.878;4.584;2024-01-30T01:56:37;6.65;;;5.97;;
37781;SDS011;23621;50.878;4.584;2024-01-30T01:58:38;6.25;;;5.53;;
37781;SDS011;23621;50.878;4.584;2024-01-30T02:00:40;6.43;;;5.63;;
37781;SDS011;23621;50.878;4.584;2024-01-30T02:02:41;7.00;;;5.88;;
37781;SDS011;23621;50.878;4.584;2024-01-30T02:04:45;7.53;;;6.15;;
37781;SDS011;23621;50.878;4.584;2024-01-30T02:06:46;6.10;;;5.50;;
37781;SDS011;23621;50.878;4.584;2024-01-30T02:08:47;6.80;;;5.88;;
37781;SDS011;23621;50.878;4.584;2024-01-30T02:10:48;6.85;;;5.80;;
37781;SDS011;23621;50.878;4.584;2024-01-30T02:12:49;6.18;;;5.57;;
37781;SDS011;23621;50.878;4.584;2024-01-30T02:14:50;7.00;;;6.30;;
37781;SDS011;23621;50.878;4.584;2024-01-30T02:16:50;7.88;;;6.20;;
37781;SDS011;23621;50.878;4.584;2024-01-30T02:18:51;7.13;;;6.15;;
37781;SDS011;23621;50.878;4.584;2024-01-30T02:20:55;6.53;;;5.93;;
37781;SDS011;23621;50.878;4.584;2024-01-30T02:22:58;6.70;;;5.65;;
37781;SDS011;23621;50.878;4.584;2024-01-30T02:25:03;6.43;;;5.82;;
37781;SDS011;23621;50.878;4.584;2024-01-30T02:27:04;7.10;;;6.03;;
37781;SDS011;23621;50.878;4.584;2024-01-30T02:29:05;5.85;;;5.25;;
37781;SDS011;23621;50.878;4.584;2024-01-30T02:31:06;6.78;;;5.82;;
37781;SDS011;23621;50.878;4.584;2024-01-30T02:33:06;8.07;;;6.22;;
37781;SDS011;23621;50.878;4.584;2024-01-30T02:35:07;6.53;;;5.93;;
37781;SDS011;23621;50.878;4.584;2024-01-30T02:37:08;6.50;;;5.82;;
37781;SDS011;23621;50.878;4.584;2024-01-30T02:39:08;5.57;;;5.07;;
37781;SDS011;23621;50.878;4.584;2024-01-30T02:41:09;6.78;;;6.03;;
37781;SDS011;23621;50.878;4.584;2024-01-30T02:43:10;7.30;;;5.90;;
37781;SDS011;23621;50.878;4.584;2024-01-30T02:45:11;6.40;;;5.65;;
37781;SDS011;23621;50.878;4.584;2024-01-30T02:47:12;6.20;;;5.55;;
37781;SDS011;23621;50.878;4.584;2024-01-30T02:49:13;6.68;;;5.97;;
37781;SDS011;23621;50.878;4.584;2024-01-30T02:51:13;7.07;;;5.80;;
37781;SDS011;23621;50.878;4.584;2024-01-30T02:53:14;6.80;;;5.60;;
37781;SDS011;23621;50.878;4.584;2024-01-30T02:55:15;5.95;;;5.35;;
37781;SDS011;23621;50.878;4.584;2024-01-30T02:57:18;5.93;;;5.32;;
37781;SDS011;23621;50.878;4.584;2024-01-30T02:59:18;6.45;;;5.85;;
37781;SDS011;23621;50.878;4.584;2024-01-30T03:01:19;6.63;;;5.70;;
37781;SDS011;23621;50.878;4.584;2024-01-30T03:03:19;6.63;;;5.53;;
37781;SDS011;23621;50.878;4.584;2024-01-30T03:05:20;5.93;;;5.38;;
37781;SDS011;23621;50.878;4.584;2024-01-30T03:07:21;8.70;;;5.80;;
37781;SDS011;23621;50.878;4.584;2024-01-30T03:09:22;6.22;;;5.20;;
37781;SDS011;23621;50.878;4.584;2024-01-30T03:11:22;5.78;;;5.28;;
37781;SDS011;23621;50.878;4.584;2024-01-30T03:13:23;6.57;;;5.40;;
37781;SDS011;23621;50.878;4.584;2024-01-30T03:15:25;6.30;;;5.72;;
37781;SDS011;23621;50.878;4.584;2024-01-30T03:17:25;7.35;;;5.88;;
37781;SDS011;23621;50.878;4.584;2024-01-30T03:19:26;7.40;;;6.25;;
37781;SDS011;23621;50.878;4.584;2024-01-30T03:21:27;5.78;;;5.28;;
37781;SDS011;23621;50.878;4.584;2024-01-30T03:23:27;7.88;;;5.65;;
37781;SDS011;23621;50.878;4.584;2024-01-30T03:25:28;6.10;;;5.47;;
37781;SDS011;23621;50.878;4.584;2024-01-30T03:27:29;6.15;;;5.50;;
37781;SDS011;23621;50.878;4.584;2024-01-30T03:29:29;7.75;;;5.47;;
37781;SDS011;23621;50.878;4.584;2024-01-30T03:31:30;6.88;;;5.57;;
37781;SDS011;23621;50.878;4.584;2024-01-30T03:33:31;7.22;;;5.55;;
37781;SDS011;23621;50.878;4.584;2024-01-30T03:35:31;5.85;;;5.35;;
37781;SDS011;23621;50.878;4.584;2024-01-30T03:37:32;6.03;;;5.38;;
37781;SDS011;23621;50.878;4.584;2024-01-30T03:39:33;6.30;;;5.70;;
37781;SDS011;23621;50.878;4.584;2024-01-30T03:41:33;6.10;;;5.20;;
37781;SDS011;23621;50.878;4.584;2024-01-30T03:43:34;6.53;;;5.70;;
37781;SDS011;23621;50.878;4.584;2024-01-30T03:45:35;6.43;;;5.82;;
37781;SDS011;23621;50.878;4.584;2024-01-30T03:47:35;7.45;;;5.65;;
37781;SDS011;23621;50.878;4.584;2024-01-30T03:49:36;6.90;;;6.30;;
37781;SDS011;23621;50.878;4.584;2024-01-30T03:51:37;6.30;;;5.70;;
37781;SDS011;23621;50.878;4.584;2024-01-30T03:53:37;6.18;;;5.57;;
37781;SDS011;23621;50.878;4.584;2024-01-30T03:55:38;6.57;;;5.80;;
37781;SDS011;23621;50.878;4.584;2024-01-30T03:57:38;6.28;;;5.68;;
37781;SDS011;23621;50.878;4.584;2024-01-30T03:59:41;5.95;;;5.40;;
37781;SDS011;23621;50.878;4.584;2024-01-30T04:01:42;5.95;;;5.38;;
37781;SDS011;23621;50.878;4.584;2024-01-30T04:03:46;6.32;;;5.63;;
37781;SDS011;23621;50.878;4.584;2024-01-30T04:05:46;6.30;;;5.80;;
37781;SDS011;23621;50.878;4.584;2024-01-30T04:07:47;6.30;;;5.70;;
37781;SDS011;23621;50.878;4.584;2024-01-30T04:09:48;6.22;;;5.60;;
37781;SDS011;23621;50.878;4.584;2024-01-30T04:11:49;6.38;;;5.78;;
37781;SDS011;23621;50.878;4.584;2024-01-30T04:13:49;8.18;;;5.63;;
37781;SDS011;23621;50.878;4.584;2024-01-30T04:15:50;7.13;;;5.78;;
37781;SDS011;23621;50.878;4.584;2024-01-30T04:17:51;7.00;;;6.13;;
37781;SDS011;23621;50.878;4.584;2024-01-30T04:19:51;5.95;;;5.40;;
37781;SDS011;23621;50.878;4.584;2024-01-30T04:21:52;6.05;;;5.45;;
37781;SDS011;23621;50.878;4.584;2024-01-30T04:23:53;5.90;;;5.28;;
37781;SDS011;23621;50.878;4.584;2024-01-30T04:25:54;7.65;;;5.78;;
37781;SDS011;23621;50.878;4.584;2024-01-30T04:27:54;6.32;;;5.72;;
37781;SDS011;23621;50.878;4.584;2024-01-30T04:29:55;9.07;;;5.78;;
37781;SDS011;23621;50.878;4.584;2024-01-30T04:31:56;6.68;;;5.97;;
37781;SDS011;23621;50.878;4.584;2024-01-30T04:33:56;7.82;;;5.70;;
37781;SDS011;23621;50.878;4.584;2024-01-30T04:35:57;6.63;;;6.03;;
37781;SDS011;23621;50.878;4.584;2024-01-30T04:37:57;6.30;;;5.70;;
37781;SDS011;23621;50.878;4.584;2024-01-30T04:39:58;7.45;;;5.93;;
37781;SDS011;23621;50.878;4.584;2024-01-30T04:41:59;9.02;;;5.88;;
37781;SDS011;23621;50.878;4.584;2024-01-30T04:43:59;6.38;;;5.75;;
37781;SDS011;23621;50.878;4.584;2024-01-30T04:46:00;6.60;;;6.00;;
37781;SDS011;23621;50.878;4.584;2024-01-30T04:48:01;10.25;;;5.43;;
37781;SDS011;23621;50.878;4.584;2024-01-30T04:50:02;6.40;;;5.57;;
37781;SDS011;23621;50.878;4.584;2024-01-30T04:52:05;6.20;;;5.60;;
37781;SDS011;23621;50.878;4.584;2024-01-30T04:54:06;6.30;;;5.50;;
37781;SDS011;23621;50.878;4.584;2024-01-30T04:56:07;7.65;;;5.60;;
37781;SDS011;23621;50.878;4.584;2024-01-30T04:58:07;7.00;;;5.63;;
37781;SDS011;23621;50.878;4.584;2024-01-30T05:00:08;6.28;;;5.68;;
37781;SDS011;23621;50.878;4.584;2024-01-30T05:02:09;6.38;;;5.72;;
37781;SDS011;23621;50.878;4.584;2024-01-30T05:04:10;6.22;;;5.60;;
37781;SDS011;23621;50.878;4.584;2024-01-30T05:06:11;5.53;;;5.00;;
37781;SDS011;23621;50.878;4.584;2024-01-30T05:08:12;8.43;;;5.78;;
37781;SDS011;23621;50.878;4.584;2024-01-30T05:10:12;8.68;;;6.45;;
37781;SDS011;23621;50.878;4.584;2024-01-30T05:12:13;5.97;;;5.38;;
37781;SDS011;23621;50.878;4.584;2024-01-30T05:14:14;6.82;;;6.07;;
37781;SDS011;23621;50.878;4.584;2024-01-30T05:16:18;6.63;;;6.00;;
37781;SDS011;23621;50.878;4.584;2024-01-30T05:18:18;6.10;;;5.57;;
37781;SDS011;23621;50.878;4.584;2024-01-30T05:20:19;7.85;;;5.78;;
37781;SDS011;23621;50.878;4.584;2024-01-30T05:22:20;6.43;;;5.82;;
37781;SDS011;23621;50.878;4.584;2024-01-30T05:24:20;6.50;;;5.90;;
37781;SDS011;23621;50.878;4.584;2024-01-30T05:26:21;6.10;;;5.50;;
37781;SDS011;23621;50.878;4.584;2024-01-30T05:28:23;6.38;;;5.78;;
37781;SDS011;23621;50.878;4.584;2024-01-30T05:30:23;8.32;;;6.10;;
37781;SDS011;23621;50.878;4.584;2024-01-30T05:32:24;6.38;;;5.78;;
37781;SDS011;23621;50.878;4.584;2024-01-30T05:34:24;7.57;;;6.85;;
37781;SDS011;23621;50.878;4.584;2024-01-30T05:36:25;8.23;;;5.93;;
37781;SDS011;23621;50.878;4.584;2024-01-30T05:38:26;7.93;;;5.53;;
37781;SDS011;23621;50.878;4.584;2024-01-30T05:40:27;6.25;;;5.65;;
37781;SDS011;23621;50.878;4.584;2024-01-30T05:42:28;8.40;;;6.47;;
37781;SDS011;23621;50.878;4.584;2024-01-30T05:44:28;6.68;;;5.65;;
37781;SDS011;23621;50.878;4.584;2024-01-30T05:46:29;7.85;;;6.20;;
37781;SDS011;23621;50.878;4.584;2024-01-30T05:48:29;6.63;;;6.00;;
37781;SDS011;23621;50.878;4.584;2024-01-30T05:50:30;7.13;;;5.68;;
37781;SDS011;23621;50.878;4.584;2024-01-30T05:52:31;7.18;;;6.03;;
37781;SDS011;23621;50.878;4.584;2024-01-30T05:54:32;6.20;;;5.70;;
37781;SDS011;23621;50.878;4.584;2024-01-30T05:56:32;6.75;;;5.95;;
37781;SDS011;23621;50.878;4.584;2024-01-30T05:58:33;6.50;;;5.90;;
37781;SDS011;23621;50.878;4.584;2024-01-30T06:00:34;7.68;;;6.43;;
37781;SDS011;23621;50.878;4.584;2024-01-30T06:02:35;8.18;;;6.10;;
37781;SDS011;23621;50.878;4.584;2024-01-30T06:04:36;7.85;;;5.82;;
37781;SDS011;23621;50.878;4.584;2024-01-30T06:06:36;6.88;;;5.90;;
37781;SDS011;23621;50.878;4.584;2024-01-30T06:08:37;7.13;;;6.40;;
37781;SDS011;23621;50.878;4.584;2024-01-30T06:10:38;6.68;;;6.07;;
37781;SDS011;23621;50.878;4.584;2024-01-30T06:12:39;7.65;;;6.50;;
37781;SDS011;23621;50.878;4.584;2024-01-30T06:14:40;7.68;;;6.72;;
37781;SDS011;23621;50.878;4.584;2024-01-30T06:16:42;8.15;;;6.90;;
37781;SDS011;23621;50.878;4.584;2024-01-30T06:18:43;6.65;;;6.05;;
37781;SDS011;23621;50.878;4.584;2024-01-30T06:20:43;7.03;;;6.43;;
37781;SDS011;23621;50.878;4.584;2024-01-30T06:22:44;7.70;;;6.45;;
37781;SDS011;23621;50.878;4.584;2024-01-30T06:24:44;7.32;;;6.63;;
37781;SDS011;23621;50.878;4.584;2024-01-30T06:26:47;9.15;;;6.82;;
37781;SDS011;23621;50.878;4.584;2024-01-30T06:28:48;7.05;;;6.43;;
37781;SDS011;23621;50.878;4.584;2024-01-30T06:30:49;7.72;;;6.72;;
37781;SDS011;23621;50.878;4.584;2024-01-30T06:32:49;7.60;;;6.07;;
37781;SDS011;23621;50.878;4.584;2024-01-30T06:34:50;7.43;;;6.72;;
37781;SDS011;23621;50.878;4.584;2024-01-30T06:36:51;7.13;;;6.38;;
37781;SDS011;23621;50.878;4.584;2024-01-30T06:38:52;8.15;;;6.40;;
37781;SDS011;23621;50.878;4.584;2024-01-30T06:40:52;7.18;;;6.47;;
37781;SDS011;23621;50.878;4.584;2024-01-30T06:42:53;7.13;;;6.43;;
37781;SDS011;23621;50.878;4.584;2024-01-30T06:44:54;7.07;;;6.07;;
37781;SDS011;23621;50.878;4.584;2024-01-30T06:46:54;6.90;;;6.20;;
37781;SDS011;23621;50.878;4.584;2024-01-30T06:48:55;6.63;;;5.93;;
37781;SDS011;23621;50.878;4.584;2024-01-30T06:50:56;6.70;;;6.03;;
37781;SDS011;23621;50.878;4.584;2024-01-30T06:52:58;7.47;;;5.80;;
37781;SDS011;23621;50.878;4.584;2024-01-30T06:54:58;7.68;;;5.80;;
37781;SDS011;23621;50.878;4.584;2024-01-30T06:56:59;7.47;;;6.57;;
37781;SDS011;23621;50.878;4.584;2024-01-30T06:59:00;7.70;;;6.28;;
37781;SDS011;23621;50.878;4.584;2024-01-30T07:01:00;6.75;;;6.03;;
37781;SDS011;23621;50.878;4.584;2024-01-30T07:03:02;7.90;;;6.68;;
37781;SDS011;23621;50.878;4.584;2024-01-30T07:05:03;6.88;;;6.18;;
37781;SDS011;23621;50.878;4.584;2024-01-30T07:07:03;9.07;;;6.68;;
37781;SDS011;23621;50.878;4.584;2024-01-30T07:09:05;7.22;;;6.38;;
37781;SDS011;23621;50.878;4.584;2024-01-30T07:11:06;7.90;;;7.13;;
37781;SDS011;23621;50.878;4.584;2024-01-30T07:13:07;6.72;;;6.03;;
37781;SDS011;23621;50.878;4.584;2024-01-30T07:15:10;7.32;;;6.35;;
37781;SDS011;23621;50.878;4.584;2024-01-30T07:17:10;7.15;;;6.50;;
37781;SDS011;23621;50.878;4.584;2024-01-30T07:19:11;8.40;;;6.40;;
37781;SDS011;23621;50.878;4.584;2024-01-30T07:21:12;6.90;;;6.18;;
37781;SDS011;23621;50.878;4.584;2024-01-30T07:23:13;6.82;;;6.13;;
37781;SDS011;23621;50.878;4.584;2024-01-30T07:25:16;7.03;;;6.03;;
37781;SDS011;23621;50.878;4.584;2024-01-30T07:27:17;7.85;;;6.90;;
37781;SDS011;23621;50.878;4.584;2024-01-30T07:29:18;6.90;;;6.18;;
37781;SDS011;23621;50.878;4.584;2024-01-30T07:31:18;7.32;;;6.50;;
37781;SDS011;23621;50.878;4.584;2024-01-30T07:33:20;10.15;;;6.45;;
37781;SDS011;23621;50.878;4.584;2024-01-30T07:35:21;8.70;;;6.70;;
37781;SDS011;23621;50.878;4.584;2024-01-30T07:37:22;7.85;;;6.72;;
37781;SDS011;23621;50.878;4.584;2024-01-30T07:39:22;7.55;;;6.28;;
37781;SDS011;23621;50.878;4.584;2024-01-30T07:41:23;7.78;;;6.15;;
37781;SDS011;23621;50.878;4.584;2024-01-30T07:43:25;7.50;;;6.75;;
37781;SDS011;23621;50.878;4.584;2024-01-30T07:45:25;9.57;;;6.30;;
37781;SDS011;23621;50.878;4.584;2024-01-30T07:47:27;6.80;;;6.05;;
37781;SDS011;23621;50.878;4.584;2024-01-30T07:49:28;8.93;;;6.53;;
37781;SDS011;23621;50.878;4.584;2024-01-30T07:51:28;8.77;;;6.43;;
37781;SDS011;23621;50.878;4.584;2024-01-30T07:53:31;8.35;;;6.13;;
37781;SDS011;23621;50.878;4.584;2024-01-30T07:55:32;9.10;;;6.35;;
37781;SDS011;23621;50.878;4.584;2024-01-30T07:57:33;6.75;;;5.82;;
37781;SDS011;23621;50.878;4.584;2024-01-30T07:59:34;9.07;;;6.53;;
37781;SDS011;23621;50.878;4.584;2024-01-30T08:01:34;8.13;;;6.07;;
37781;SDS011;23621;50.878;4.584;2024-01-30T08:03:35;7.45;;;6.35;;
37781;SDS011;23621;50.878;4.584;2024-01-30T08:05:37;9.15;;;6.70;;
37781;SDS011;23621;50.878;4.584;2024-01-30T08:07:39;8.95;;;6.22;;
37781;SDS011;23621;50.878;4.584;2024-01-30T08:09:39;7.15;;;6.20;;
37781;SDS011;23621;50.878;4.584;2024-01-30T08:11:40;8.85;;;6.30;;
37781;SDS011;23621;50.878;4.584;2024-01-30T08:13:41;9.05;;;6.53;;
37781;SDS011;23621;50.878;4.584;2024-01-30T08:15:41;9.60;;;6.40;;
37781;SDS011;23621;50.878;4.584;2024-01-30T08:17:42;7.55;;;6.32;;
37781;SDS011;23621;50.878;4.584;2024-01-30T08:19:44;8.15;;;5.97;;
37781;SDS011;23621;50.878;4.584;2024-01-30T08:21:45;8.27;;;6.18;;
37781;SDS011;23621;50.878;4.584;2024-01-30T08:23:46;8.40;;;5.82;;
37781;SDS011;23621;50.878;4.584;2024-01-30T08:25:46;10.25;;;6.57;;
37781;SDS011;23621;50.878;4.584;2024-01-30T08:27:47;9.77;;;6.22;;
37781;SDS011;23621;50.878;4.584;2024-01-30T08:29:48;8.43;;;5.82;;
37781;SDS011;23621;50.878;4.584;2024-01-30T08:31:50;8.95;;;6.28;;
37781;SDS011;23621;50.878;4.584;2024-01-30T08:33:51;8.88;;;6.35;;
37781;SDS011;23621;50.878;4.584;2024-01-30T08:35:51;8.95;;;6.60;;
37781;SDS011;23621;50.878;4.584;2024-01-30T08:37:52;11.50;;;6.50;;
37781;SDS011;23621;50.878;4.584;2024-01-30T08:39:54;8.43;;;6.47;;
37781;SDS011;23621;50.878;4.584;2024-01-30T08:41:55;10.73;;;6.95;;
37781;SDS011;23621;50.878;4.584;2024-01-30T08:43:56;11.70;;;7.68;;
37781;SDS011;23621;50.878;4.584;2024-01-30T08:45:58;10.45;;;6.53;;
37781;SDS011;23621;50.878;4.584;2024-01-30T08:47:59;10.18;;;6.88;;
37781;SDS011;23621;50.878;4.584;2024-01-30T08:50:00;7.45;;;6.22;;
37781;SDS011;23621;50.878;4.584;2024-01-30T08:52:01;7.80;;;7.05;;
37781;SDS011;23621;50.878;4.584;2024-01-30T08:54:02;9.30;;;6.90;;
37781;SDS011;23621;50.878;4.584;2024-01-30T08:56:03;8.25;;;7.38;;
37781;SDS011;23621;50.878;4.584;2024-01-30T08:58:06;9.98;;;7.07;;
37781;SDS011;23621;50.878;4.584;2024-01-30T09:00:06;10.05;;;6.95;;
37781;SDS011;23621;50.878;4.584;2024-01-30T09:02:09;8.35;;;7.10;;
37781;SDS011;23621;50.878;4.584;2024-01-30T09:04:10;8.48;;;7.13;;
37781;SDS011;23621;50.878;4.584;2024-01-30T09:06:11;9.05;;;6.95;;
37781;SDS011;23621;50.878;4.584;2024-01-30T09:08:11;10.45;;;7.68;;
37781;SDS011;23621;50.878;4.584;2024-01-30T09:10:12;8.45;;;7.00;;
37781;SDS011;23621;50.878;4.584;2024-01-30T09:12:13;8.65;;;7.28;;
37781;SDS011;23621;50.878;4.584;2024-01-30T09:14:14;9.68;;;7.60;;
37781;SDS011;23621;50.878;4.584;2024-01-30T09:16:15;9.77;;;7.43;;
37781;SDS011;23621;50.878;4.584;2024-01-30T09:18:16;7.60;;;6.75;;
37781;SDS011;23621;50.878;4.584;2024-01-30T09:20:17;9.45;;;7.53;;
37781;SDS011;23621;50.878;4.584;2024-01-30T09:22:17;9.18;;;6.63;;
37781;SDS011;23621;50.878;4.584;2024-01-30T09:24:18;9.68;;;7.75;;
37781;SDS011;23621;50.878;4.584;2024-01-30T09:26:18;9.88;;;7.32;;
37781;SDS011;23621;50.878;4.584;2024-01-30T09:28:19;9.23;;;7.20;;
37781;SDS011;23621;50.878;4.584;2024-01-30T09:30:20;9.25;;;7.22;;
37781;SDS011;23621;50.878;4.584;2024-01-30T09:32:20;12.23;;;7.25;;
37781;SDS011;23621;50.878;4.584;2024-01-30T09:34:21;10.52;;;7.38;;
37781;SDS011;23621;50.878;4.584;2024-01-30T09:36:22;9.77;;;7.70;;
37781;SDS011;23621;50.878;4.584;2024-01-30T09:38:23;9.65;;;7.78;;
37781;SDS011;23621;50.878;4.584;2024-01-30T09:40:24;11.30;;;7.80;;
37781;SDS011;23621;50.878;4.584;2024-01-30T09:44:25;15.75;;;11.27;;
37781;SDS011;23621;50.878;4.584;2024-01-30T09:46:28;12.80;;;8.25;;
37781;SDS011;23621;50.878;4.584;2024-01-30T09:48:32;10.45;;;8.35;;
37781;SDS011;23621;50.878;4.584;2024-01-30T09:50:33;10.75;;;7.97;;
37781;SDS011;23621;50.878;4.584;2024-01-30T09:52:37;12.95;;;8.25;;
37781;SDS011;23621;50.878;4.584;2024-01-30T09:54:38;10.75;;;8.07;;
37781;SDS011;23621;50.878;4.584;2024-01-30T09:56:40;10.70;;;8.20;;
37781;SDS011;23621;50.878;4.584;2024-01-30T09:58:40;12.63;;;8.82;;
37781;SDS011;23621;50.878;4.584;2024-01-30T10:00:42;13.25;;;8.52;;
37781;SDS011;23621;50.878;4.584;2024-01-30T10:02:42;10.90;;;8.38;;
37781;SDS011;23621;50.878;4.584;2024-01-30T10:04:44;10.10;;;7.85;;
37781;SDS011;23621;50.878;4.584;2024-01-30T10:06:47;10.90;;;7.65;;
37781;SDS011;23621;50.878;4.584;2024-01-30T10:08:48;12.68;;;8.90;;
37781;SDS011;23621;50.878;4.584;2024-01-30T10:10:49;11.98;;;7.93;;
37781;SDS011;23621;50.878;4.584;2024-01-30T10:12:50;12.88;;;8.93;;
37781;SDS011;23621;50.878;4.584;2024-01-30T10:14:51;10.70;;;8.55;;
37781;SDS011;23621;50.878;4.584;2024-01-30T10:16:51;14.10;;;8.98;;
37781;SDS011;23621;50.878;4.584;2024-01-30T10:18:52;12.68;;;9.25;;
37781;SDS011;23621;50.878;4.584;2024-01-30T10:20:53;12.43;;;9.20;;
37781;SDS011;23621;50.878;4.584;2024-01-30T10:22:54;15.02;;;9.30;;
37781;SDS011;23621;50.878;4.584;2024-01-30T10:24:55;12.43;;;9.77;;
37781;SDS011;23621;50.878;4.584;2024-01-30T10:26:56;13.05;;;9.38;;
37781;SDS011;23621;50.878;4.584;2024-01-30T10:28:57;13.65;;;9.75;;
37781;SDS011;23621;50.878;4.584;2024-01-30T10:30:58;12.73;;;9.13;;
37781;SDS011;23621;50.878;4.584;2024-01-30T10:32:59;13.45;;;8.98;;
37781;SDS011;23621;50.878;4.584;2024-01-30T10:35:00;13.90;;;10.10;;
37781;SDS011;23621;50.878;4.584;2024-01-30T10:37:07;13.48;;;10.43;;
37781;SDS011;23621;50.878;4.584;2024-01-30T10:39:15;13.82;;;9.50;;
37781;SDS011;23621;50.878;4.584;2024-01-30T10:41:19;12.75;;;9.70;;
37781;SDS011;23621;50.878;4.584;2024-01-30T10:45:33;11.90;;;9.13;;
37781;SDS011;23621;50.878;4.584;2024-01-30T10:47:36;14.00;;;9.07;;
37781;SDS011;23621;50.878;4.584;2024-01-30T10:49:37;12.18;;;8.88;;
37781;SDS011;23621;50.878;4.584;2024-01-30T10:51:39;13.65;;;9.00;;
37781;SDS011;23621;50.878;4.584;2024-01-30T10:53:43;14.63;;;9.32;;
37781;SDS011;23621;50.878;4.584;2024-01-30T10:55:46;18.67;;;10.43;;
37781;SDS011;23621;50.878;4.584;2024-01-30T10:57:48;10.70;;;8.85;;
37781;SDS011;23621;50.878;4.584;2024-01-30T10:59:51;16.02;;;8.35;;
37781;SDS011;23621;50.878;4.584;2024-01-30T11:01:53;10.73;;;7.95;;
37781;SDS011;23621;50.878;4.584;2024-01-30T11:03:55;11.05;;;8.13;;
37781;SDS011;23621;50.878;4.584;2024-01-30T11:05:58;13.20;;;8.02;;
37781;SDS011;23621;50.878;4.584;2024-01-30T11:08:10;10.18;;;7.68;;
37781;SDS011;23621;50.878;4.584;2024-01-30T11:10:12;10.30;;;7.60;;
37781;SDS011;23621;50.878;4.584;2024-01-30T11:12:15;11.45;;;7.63;;
37781;SDS011;23621;50.878;4.584;2024-01-30T11:14:15;9.85;;;7.68;;
37781;SDS011;23621;50.878;4.584;2024-01-30T11:16:16;11.50;;;7.82;;
37781;SDS011;23621;50.878;4.584;2024-01-30T11:18:26;8.70;;;6.82;;
37781;SDS011;23621;50.878;4.584;2024-01-30T11:20:30;8.98;;;6.72;;
37781;SDS011;23621;50.878;4.584;2024-01-30T11:22:32;9.07;;;6.82;;
37781;SDS011;23621;50.878;4.584;2024-01-30T11:24:40;10.68;;;6.88;;
37781;SDS011;23621;50.878;4.584;2024-01-30T11:26:42;10.68;;;6.53;;
37781;SDS011;23621;50.878;4.584;2024-01-30T11:28:42;8.43;;;6.53;;
37781;SDS011;23621;50.878;4.584;2024-01-30T11:31:02;9.45;;;6.68;;
37781;SDS011;23621;50.878;4.584;2024-01-30T11:33:08;10.57;;;6.22;;
37781;SDS011;23621;50.878;4.584;2024-01-30T11:35:11;9.93;;;5.95;;
37781;SDS011;23621;50.878;4.584;2024-01-30T11:37:12;10.35;;;6.30;;
37781;SDS011;23621;50.878;4.584;2024-01-30T11:39:16;9.27;;;6.25;;
37781;SDS011;23621;50.878;4.584;2024-01-30T11:41:20;6.60;;;5.00;;
37781;SDS011;23621;50.878;4.584;2024-01-30T11:43:22;10.20;;;5.00;;
37781;SDS011;23621;50.878;4.584;2024-01-30T11:45:23;8.38;;;4.90;;
37781;SDS011;23621;50.878;4.584;2024-01-30T11:47:24;8.93;;;4.57;;
37781;SDS011;23621;50.878;4.584;2024-01-30T11:49:24;8.45;;;4.13;;
37781;SDS011;23621;50.878;4.584;2024-01-30T11:51:25;6.43;;;3.50;;
37781;SDS011;23621;50.878;4.584;2024-01-30T11:53:26;5.50;;;2.85;;
37781;SDS011;23621;50.878;4.584;2024-01-30T11:55:28;5.20;;;2.90;;
37781;SDS011;23621;50.878;4.584;2024-01-30T11:57:30;5.13;;;2.85;;
37781;SDS011;23621;50.878;4.584;2024-01-30T11:59:30;6.28;;;2.97;;
37781;SDS011;23621;50.878;4.584;2024-01-30T12:01:31;3.95;;;2.60;;
37781;SDS011;23621;50.878;4.584;2024-01-30T12:03:32;3.83;;;2.30;;
37781;SDS011;23621;50.878;4.584;2024-01-30T12:05:33;5.75;;;2.20;;
37781;SDS011;23621;50.878;4.584;2024-01-30T12:07:34;6.25;;;2.58;;
37781;SDS011;23621;50.878;4.584;2024-01-30T12:09:35;3.25;;;2.15;;
37781;SDS011;23621;50.878;4.584;2024-01-30T12:11:45;3.92;;;1.90;;
37781;SDS011;23621;50.878;4.584;2024-01-30T12:13:50;2.20;;;1.88;;